createdAt,value
2023-12-23T00:03:02.928Z,99913.31
2023-12-23T00:13:07.215Z,99983.84
2023-12-23T00:23:10.002Z,100000.94
2023-12-23T00:33:14.192Z,100003.47
2023-12-23T00:43:17.043Z,100002.41
2023-12-23T00:53:21.189Z,100014.22
2023-12-23T01:03:24.350Z,100013.50
2023-12-23T01:13:29.853Z,100002.03
2023-12-23T01:23:32.646Z,100009.50
2023-12-23T01:33:36.813Z,100019.16
2023-12-23T01:43:39.657Z,100015.56
2023-12-23T01:53:44.511Z,100030.00
2023-12-23T02:03:48.056Z,100016.50
2023-12-23T02:14:00.944Z,100014.78
2023-12-23T02:24:05.597Z,100005.34
2023-12-23T02:34:09.220Z,100000.84
2023-12-23T02:44:13.461Z,99979.09
2023-12-23T02:54:16.294Z,99954.22
2023-12-23T03:04:20.424Z,99935.31
2023-12-23T03:14:23.213Z,99892.53
2023-12-23T03:24:27.313Z,99909.19
2023-12-23T03:34:30.162Z,99897.84
2023-12-23T03:44:34.390Z,99882.81
2023-12-23T03:54:37.115Z,99876.06
2023-12-23T04:04:41.402Z,99876.78
2023-12-23T04:14:44.135Z,99883.03
2023-12-23T04:24:48.336Z,99884.72
2023-12-23T04:34:51.194Z,99875.13
2023-12-23T04:44:55.778Z,99862.94
2023-12-23T04:55:00.571Z,99860.50
2023-12-23T05:05:05.233Z,99863.53
2023-12-23T05:15:09.396Z,99837.06
2023-12-23T05:25:13.573Z,99839.50
2023-12-23T05:35:16.499Z,99843.81
2023-12-23T05:45:20.598Z,99831.75
2023-12-23T05:55:23.461Z,99813.75
2023-12-23T06:05:27.707Z,99806.97
2023-12-23T06:15:30.988Z,99806.72
2023-12-23T06:25:35.068Z,99806.66
2023-12-23T06:35:38.046Z,99811.78
2023-12-23T06:45:42.364Z,99829.63
2023-12-23T06:55:45.155Z,99834.63
2023-12-23T07:05:49.349Z,99833.16
2023-12-23T07:15:52.116Z,99827.09
2023-12-23T07:25:56.239Z,99824.47
2023-12-23T07:35:59.164Z,99800.97
2023-12-23T07:46:03.252Z,99822.41
2023-12-23T07:56:07.931Z,99817.31
2023-12-23T08:06:12.139Z,99814.59
2023-12-23T08:16:14.933Z,99846.25
2023-12-23T08:26:19.210Z,99830.66
2023-12-23T08:36:22.145Z,99834.66
2023-12-23T08:46:26.260Z,99817.94
2023-12-23T08:56:29.506Z,99820.50
2023-12-23T09:06:33.668Z,99817.50
2023-12-23T09:16:36.459Z,99809.19
2023-12-23T09:26:42.688Z,99833.63
2023-12-23T09:36:45.510Z,99774.84
2023-12-23T09:46:50.496Z,99879.16
2023-12-23T09:56:53.320Z,99866.75
2023-12-23T10:06:57.399Z,99883.66
2023-12-23T10:17:00.419Z,99880.31
2023-12-23T10:27:05.522Z,99882.41
2023-12-23T10:37:08.330Z,99823.09
2023-12-23T10:47:13.449Z,99890.34
2023-12-23T10:57:17.784Z,99896.94
2023-12-23T11:07:27.606Z,99860.13
2023-12-23T11:17:31.861Z,99899.69
2023-12-23T11:27:37.511Z,99903.53
2023-12-23T11:37:54.541Z,99897.59
2023-12-23T11:48:00.349Z,99908.00
2023-12-23T11:58:03.563Z,99905.00
2023-12-23T12:08:08.610Z,99896.97
2023-12-23T12:18:13.589Z,99829.78
2023-12-23T12:28:18.021Z,99851.03
2023-12-23T12:38:24.149Z,99874.19
2023-12-23T12:48:29.997Z,99871.25
2023-12-23T12:58:32.820Z,99876.09
2023-12-23T13:08:37.067Z,99904.97
2023-12-23T13:18:49.189Z,99899.78
2023-12-23T13:29:01.228Z,99912.03
2023-12-23T13:39:07.705Z,99916.34
2023-12-23T13:49:12.064Z,99937.16
2023-12-23T13:59:14.991Z,99956.44
2023-12-23T14:09:19.094Z,99962.72
2023-12-23T14:19:22.005Z,99975.41
2023-12-23T14:29:26.212Z,99954.66
2023-12-23T14:39:29.081Z,99946.63
2023-12-23T14:49:33.308Z,100006.72
2023-12-23T14:59:36.118Z,99998.16
2023-12-23T15:09:41.275Z,100013.56
2023-12-23T15:19:44.133Z,100007.72
2023-12-23T15:29:48.861Z,100025.47
2023-12-23T15:39:52.714Z,100020.31
2023-12-23T15:49:57.810Z,100035.88
2023-12-23T16:00:02.010Z,100010.59
2023-12-23T16:10:16.580Z,100018.00
2023-12-23T16:20:19.573Z,100051.28
2023-12-23T16:30:23.802Z,100068.53
2023-12-23T16:40:26.630Z,100077.03
2023-12-23T16:50:30.744Z,100095.38
2023-12-23T17:00:33.469Z,100093.69
2023-12-23T17:10:37.529Z,100097.19
2023-12-23T17:20:40.617Z,100100.47
2023-12-23T17:30:44.832Z,100107.22
2023-12-23T17:40:50.480Z,100102.75
2023-12-23T17:50:56.117Z,100102.69
2023-12-23T18:00:58.860Z,100096.72
2023-12-23T18:11:03.054Z,100087.41
2023-12-23T18:21:06.472Z,100093.34
2023-12-23T18:31:10.837Z,100104.50
2023-12-23T18:41:13.750Z,100102.84
2023-12-23T18:51:18.067Z,100108.06
2023-12-23T19:01:21.166Z,100102.75
2023-12-23T19:11:25.676Z,100118.53
2023-12-23T19:21:29.040Z,100117.69
2023-12-23T19:31:33.737Z,100127.09
2023-12-23T19:41:36.691Z,100128.94
2023-12-23T19:51:41.081Z,100136.75
2023-12-23T20:01:47.264Z,100135.22
2023-12-23T20:11:52.634Z,100128.16
2023-12-23T20:21:55.952Z,100159.19
2023-12-23T20:32:00.644Z,100136.44
2023-12-23T20:42:03.531Z,100138.69
2023-12-23T20:52:07.954Z,100119.91
2023-12-23T21:02:10.784Z,100144.03
2023-12-23T21:12:14.937Z,100034.13
2023-12-23T21:22:21.507Z,100121.03
2023-12-23T21:32:25.609Z,100129.63
2023-12-23T21:42:28.372Z,100129.41
2023-12-23T21:52:32.482Z,100127.72
2023-12-23T22:02:36.358Z,100134.44
2023-12-23T22:12:41.526Z,100130.09
2023-12-23T22:22:44.337Z,100061.47
2023-12-23T22:32:48.687Z,100116.44
2023-12-23T22:42:52.308Z,100118.22
2023-12-23T22:52:56.546Z,100114.63
2023-12-23T23:03:00.617Z,100096.75
2023-12-23T23:13:04.932Z,100065.66
2023-12-23T23:23:08.048Z,100064.63
2023-12-23T23:33:14.327Z,100041.31
2023-12-23T23:43:17.142Z,100036.72
2023-12-23T23:53:23.000Z,100047.72
